Time;durP1;ratioP1;P1;durP2;ratioP2;P2;SDS_P1;SDS_P2;PMS_P1;PMS_P2;Temp;Humidity;BMP_temperature;BMP_pressure;BME280_temperature;BME280_humidity;BME280_pressure;Samples;Min_cycle;Max_cycle;Signal;HPM_P1;HPM_P2
2021/06/12 00:02:14;;;;;;;2.92;1.52;;;;;;;12.09;84.20;101822.06;5980772;23;20033;-83
2021/06/12 00:04:39;;;;;;;5.15;1.50;;;;;;;11.96;84.46;101800.09;5980246;23;20475;-83
2021/06/12 00:07:05;;;;;;;3.08;1.23;;;;;;;11.97;85.41;101805.31;5957790;23;20050;-83
2021/06/12 00:09:31;;;;;;;4.57;1.73;;;;;;;11.98;85.41;101811.56;5957463;23;20106;-83
2021/06/12 00:11:56;;;;;;;3.33;1.40;;;;;;;12.03;85.11;101817.31;5980299;23;20059;-83
2021/06/12 00:14:22;;;;;;;3.00;1.40;;;;;;;12.03;85.02;101811.94;5981294;23;20000;-83
2021/06/12 00:16:47;;;;;;;3.58;1.52;;;;;;;12.06;85.03;101814.28;5957325;23;20039;-83
2021/06/12 00:19:13;;;;;;;2.70;1.30;;;;;;;12.09;85.16;101824.75;5956611;23;20006;-83
2021/06/12 00:21:39;;;;;;;3.17;1.40;;;;;;;12.13;85.70;101822.59;5982199;23;20011;-83
2021/06/12 00:24:05;;;;;;;7.22;1.50;;;;;;;12.17;85.26;101818.56;5957517;23;20000;-83
2021/06/12 00:26:31;;;;;;;2.97;1.35;;;;;;;12.13;85.10;101814.53;5957587;23;20011;-83
2021/06/12 00:28:56;;;;;;;4.18;1.50;;;;;;;12.12;84.90;101807.41;5979866;23;20091;-85
2021/06/12 00:31:22;;;;;;;2.55;1.50;;;;;;;12.17;84.95;101818.56;5978888;23;20087;-83
2021/06/12 00:33:47;;;;;;;3.78;1.40;;;;;;;12.15;84.81;101824.13;5978253;23;20071;-85
2021/06/12 00:36:13;;;;;;;3.97;1.63;;;;;;;12.10;85.17;101821.91;5978104;23;20426;-83
2021/06/12 00:38:38;;;;;;;3.83;1.80;;;;;;;12.08;85.36;101815.00;5954502;23;20011;-83
2021/06/12 00:41:07;;;;;;;3.47;1.40;;;;;;;12.06;84.80;101814.28;5952610;23;20004;-83
2021/06/12 00:43:32;;;;;;;3.25;1.40;;;;;;;12.06;85.48;101823.22;5953087;23;20056;-85
2021/06/12 00:45:58;;;;;;;8.98;2.65;;;;;;;12.04;85.29;101825.25;5953808;23;20012;-84
2021/06/12 00:48:27;;;;;;;3.92;1.50;;;;;;;12.00;85.37;101812.25;5952777;23;20024;-83
2021/06/12 00:50:52;;;;;;;6.28;1.75;;;;;;;11.97;85.66;101813.41;5954005;23;20442;-84
2021/06/12 00:53:19;;;;;;;6.38;1.80;;;;;;;11.99;85.72;101821.34;5953758;23;20011;-83
2021/06/12 00:55:45;;;;;;;4.38;1.50;;;;;;;11.93;85.82;101803.09;5953634;23;20007;-84
2021/06/12 00:58:11;;;;;;;7.57;1.95;;;;;;;11.95;85.71;101820.81;5954276;23;20047;-83
2021/06/12 01:00:36;;;;;;;4.13;2.33;;;;;;;11.74;85.56;101791.50;5978381;23;20808;-84
2021/06/12 01:03:02;;;;;;;5.78;1.65;;;;;;;11.80;85.77;101811.56;5955182;23;20012;-83
2021/06/12 01:05:27;;;;;;;4.97;1.73;;;;;;;11.73;86.23;101818.63;5977827;23;20007;-84
2021/06/12 01:07:53;;;;;;;6.57;2.40;;;;;;;11.70;86.20;101819.78;5976419;23;20012;-83
2021/06/12 01:10:19;;;;;;;3.67;1.63;;;;;;;11.67;86.44;101817.41;5952911;23;20034;-83
2021/06/12 01:13:03;;;;;;;4.35;1.65;;;;;;;11.63;86.46;101802.53;5955164;23;20011;-83
2021/06/12 01:15:37;;;;;;;4.75;1.63;;;;;;;11.72;86.33;101812.34;5977896;23;20059;-83
2021/06/12 01:18:06;;;;;;;4.93;1.80;;;;;;;11.69;86.50;101814.53;5954782;23;20623;-84
2021/06/12 01:20:49;;;;;;;4.55;1.83;;;;;;;11.68;86.87;101820.94;5976495;23;20349;-84
2021/06/12 01:23:33;;;;;;;;;;;;;;;11.65;86.73;101819.41;5976616;23;20019;-83
2021/06/12 01:26:09;;;;;;;3.88;1.75;;;;;;;11.57;86.74;101822.03;6001030;23;19942;-83
2021/06/12 01:29:03;;;;;;;3.80;1.80;;;;;;;11.54;86.75;101822.34;5976418;23;20464;-85
2021/06/12 01:31:30;;;;;;;4.95;1.85;;;;;;;11.55;87.14;101818.66;5952728;23;20043;-84
2021/06/12 01:33:57;;;;;;;5.55;1.73;;;;;;;11.48;87.22;101815.72;5954318;23;20004;-83
2021/06/12 01:36:24;;;;;;;3.03;1.60;;;;;;;11.54;87.80;101823.19;5956700;23;20067;-83
2021/06/12 01:38:51;;;;;;;3.85;2.22;;;;;;;11.60;86.86;101819.88;5954727;23;20030;-83
2021/06/12 01:41:20;;;;;;;4.35;1.67;;;;;;;11.62;86.85;101822.41;5957117;23;20019;-83
2021/06/12 01:43:47;;;;;;;3.78;1.63;;;;;;;11.61;86.91;101818.00;5955779;23;20011;-83
2021/06/12 01:46:13;;;;;;;4.65;1.67;;;;;;;11.65;86.90;101817.53;5955692;23;20091;-83
2021/06/12 01:48:41;;;;;;;5.57;1.70;;;;;;;11.53;86.64;101807.16;5980189;23;20374;-83
2021/06/12 01:51:07;;;;;;;2.20;1.40;;;;;;;11.57;86.43;101827.41;5957102;23;20072;-83
2021/06/12 01:53:33;;;;;;;4.63;1.70;;;;;;;11.55;86.87;101829.41;5955354;23;20007;-83
2021/06/12 01:56:04;;;;;;;6.38;2.47;;;;;;;11.58;86.71;101840.72;5980898;23;20008;-83
2021/06/12 01:58:30;;;;;;;7.45;2.22;;;;;;;11.50;86.94;101826.34;5980238;23;20010;-83
2021/06/12 02:00:56;;;;;;;3.33;2.00;;;;;;;11.48;87.06;101831.88;5958293;23;20013;-83
2021/06/12 02:03:22;;;;;;;3.90;1.75;;;;;;;11.53;87.12;101840.34;5980706;23;20011;-83
2021/06/12 02:05:49;;;;;;;6.78;2.05;;;;;;;11.50;86.86;101842.50;5979771;23;20434;-84
2021/06/12 02:08:16;;;;;;;4.50;1.83;;;;;;;11.53;87.24;101844.88;5977364;23;20655;-85
2021/06/12 02:10:42;;;;;;;3.80;1.60;;;;;;;11.43;86.89;101826.97;5955966;23;20018;-83
2021/06/12 02:13:09;;;;;;;4.90;1.83;;;;;;;11.58;87.90;101847.97;5956118;23;20031;-82
2021/06/12 02:15:35;;;;;;;4.90;1.63;;;;;;;11.64;87.11;101844.63;5980246;23;20005;-85
2021/06/12 02:18:07;;;;;;;4.20;1.70;;;;;;;11.68;86.67;101839.78;5956262;23;20031;-83
2021/06/12 02:20:34;;;;;;;3.75;1.85;;;;;;;11.70;86.76;101840.50;5957022;23;20102;-85
2021/06/12 02:23:01;;;;;;;4.75;1.90;;;;;;;11.78;86.61;101851.31;5957966;23;20000;-83
2021/06/12 02:25:26;;;;;;;3.90;1.60;;;;;;;11.82;86.63;101841.91;5960670;23;20391;-82
2021/06/12 02:27:56;;;;;;;4.15;1.73;;;;;;;11.84;86.14;101835.34;5981736;23;20007;-84
2021/06/12 02:30:25;;;;;;;3.80;1.60;;;;;;;11.81;85.82;101841.06;5958779;23;20022;-84
2021/06/12 02:32:55;;;;;;;4.03;1.65;;;;;;;11.82;86.22;101850.00;5957655;23;20000;-84
2021/06/12 02:35:21;;;;;;;3.95;2.03;;;;;;;11.82;86.26;101845.44;5979684;23;20008;-84
2021/06/12 02:37:48;;;;;;;3.13;1.60;;;;;;;11.87;85.58;101856.63;5957252;23;20098;-82
2021/06/12 02:40:13;;;;;;;4.22;1.60;;;;;;;11.79;85.33;101850.31;5958794;23;20442;-83
2021/06/12 02:42:39;;;;;;;3.90;1.73;;;;;;;11.79;85.70;101856.53;5958194;23;20011;-85
2021/06/12 02:45:07;;;;;;;3.45;1.85;;;;;;;11.77;85.47;101868.47;5982251;23;20014;-85
2021/06/12 02:47:37;;;;;;;2.90;1.55;;;;;;;11.71;85.92;101861.03;5957000;23;20034;-83
2021/06/12 02:50:03;;;;;;;5.45;1.90;;;;;;;11.75;85.83;101873.16;5978706;23;20116;-83
2021/06/12 02:52:31;;;;;;;3.50;1.55;;;;;;;11.70;86.27;101870.97;5980008;23;20095;-82
2021/06/12 02:55:05;;;;;;;4.55;1.70;;;;;;;11.71;86.27;101874.50;5958043;23;20470;-83
2021/06/12 02:57:31;;;;;;;3.33;1.70;;;;;;;11.58;86.71;101869.50;5958344;23;20008;-83
2021/06/12 02:59:57;;;;;;;3.65;1.63;;;;;;;11.56;86.82;101871.50;5957389;23;20035;-83
2021/06/12 03:02:23;;;;;;;4.10;1.60;;;;;;;11.58;86.86;101875.72;5957187;23;20521;-83
2021/06/12 03:04:49;;;;;;;5.05;1.60;;;;;;;11.55;87.28;101864.44;5957649;23;20559;-83
2021/06/12 03:07:16;;;;;;;2.67;1.40;;;;;;;11.58;87.26;101861.44;5984051;23;20007;-83
2021/06/12 03:09:43;;;;;;;5.57;1.80;;;;;;;11.42;86.96;101838.72;5981932;23;20338;-84
2021/06/12 03:12:09;;;;;;;4.32;2.15;;;;;;;11.59;86.65;101868.50;5982476;23;20004;-83
2021/06/12 03:14:36;;;;;;;3.92;1.77;;;;;;;11.60;87.10;101870.19;5959134;23;20007;-82
2021/06/12 03:17:04;;;;;;;5.55;1.73;;;;;;;11.58;86.49;101872.19;5958965;23;20011;-83
2021/06/12 03:19:29;;;;;;;5.80;2.00;;;;;;;11.56;86.80;101872.34;5980751;23;20077;-83
2021/06/12 03:21:55;;;;;;;4.85;1.60;;;;;;;11.60;86.38;101868.34;5960084;23;20007;-83
2021/06/12 03:24:21;;;;;;;4.50;2.00;;;;;;;11.59;86.35;101873.88;5958902;23;20099;-83
2021/06/12 03:26:47;;;;;;;4.10;2.05;;;;;;;11.65;86.72;101875.97;5958900;23;20433;-83
2021/06/12 03:29:13;;;;;;;5.70;1.90;;;;;;;11.68;86.29;101867.56;5959203;23;20035;-83
2021/06/12 03:31:39;;;;;;;2.75;1.60;;;;;;;11.69;86.06;101868.41;5959097;23;20123;-83
2021/06/12 03:34:05;;;;;;;4.53;1.65;;;;;;;11.71;85.21;101869.94;5960858;23;20015;-83
2021/06/12 03:36:31;;;;;;;4.40;1.60;;;;;;;11.70;85.63;101862.03;5960421;23;20007;-83
2021/06/12 03:38:56;;;;;;;4.43;1.70;;;;;;;11.58;85.41;101853.34;5958628;23;20010;-83
2021/06/12 03:41:23;;;;;;;3.20;1.80;;;;;;;11.61;85.67;101869.19;5958798;23;20027;-83
2021/06/12 03:43:49;;;;;;;6.88;2.28;;;;;;;11.60;85.96;101884.50;5959440;23;20018;-83
2021/06/12 03:46:16;;;;;;;4.80;1.88;;;;;;;11.54;86.09;101878.91;5959740;23;20004;-83
2021/06/12 03:48:45;;;;;;;3.55;1.60;;;;;;;11.57;86.20;101884.00;5958549;23;20011;-83
2021/06/12 03:51:12;;;;;;;3.92;1.83;;;;;;;11.56;85.96;101879.59;5981724;23;20008;-83
2021/06/12 03:53:44;;;;;;;4.35;1.77;;;;;;;11.62;86.14;101878.97;5960020;23;20038;-83
2021/06/12 03:56:12;;;;;;;9.95;1.85;;;;;;;11.66;85.98;101880.34;5960230;23;20018;-83
2021/06/12 03:58:38;;;;;;;4.65;1.52;;;;;;;11.65;85.54;101865.19;5959748;23;20031;-82
2021/06/12 04:01:03;;;;;;;5.03;1.80;;;;;;;11.66;85.57;101869.56;5961187;23;20516;-83
2021/06/12 04:03:29;;;;;;;3.20;1.67;;;;;;;11.69;85.28;101874.63;5983338;23;20003;-82
2021/06/12 04:05:54;;;;;;;5.97;2.08;;;;;;;11.69;85.25;101879.19;5960496;23;20011;-83
2021/06/12 04:08:20;;;;;;;4.03;1.60;;;;;;;11.59;85.11;101873.88;5958380;23;20020;-83
2021/06/12 04:10:45;;;;;;;5.03;1.50;;;;;;;11.67;85.17;101882.06;5982522;23;20379;-83
2021/06/12 04:13:11;;;;;;;5.25;1.55;;;;;;;11.72;85.45;101885.09;5981998;23;20465;-83
2021/06/12 04:15:36;;;;;;;7.70;1.67;;;;;;;11.60;84.94;101878.28;5981476;23;20086;-83
2021/06/12 04:18:08;;;;;;;4.20;1.70;;;;;;;11.45;84.72;101859.97;5957546;23;19999;-83
2021/06/12 04:20:38;;;;;;;3.10;1.63;;;;;;;11.58;85.12;101897.28;5982365;23;20007;-83
2021/06/12 04:23:03;;;;;;;5.65;1.75;;;;;;;11.43;84.95;101864.69;5957828;23;20027;-83
2021/06/12 04:25:29;;;;;;;5.20;1.77;;;;;;;11.64;85.06;101895.81;5956991;23;21069;-83
2021/06/12 04:27:54;;;;;;;2.63;1.60;;;;;;;11.65;85.22;101905.59;5982595;23;20015;-83
2021/06/12 04:30:21;;;;;;;3.33;1.70;;;;;;;11.57;85.01;101889.38;5981524;23;20570;-83
2021/06/12 04:32:46;;;;;;;4.72;1.80;;;;;;;11.62;85.08;101901.38;5958434;23;20437;-83
2021/06/12 04:35:14;;;;;;;3.47;1.80;;;;;;;11.63;85.48;101892.28;5980692;23;20010;-83
2021/06/12 04:37:40;;;;;;;4.85;1.50;;;;;;;11.62;85.68;101878.97;5980346;23;20612;-83
2021/06/12 04:40:06;;;;;;;3.20;1.67;;;;;;;11.67;85.19;101876.66;5957555;23;20731;-83
2021/06/12 04:42:31;;;;;;;2.67;1.83;;;;;;;11.66;84.87;101877.66;5981959;23;20566;-84
2021/06/12 04:44:57;;;;;;;5.03;1.50;;;;;;;11.51;84.70;101854.97;5958072;23;20011;-83
2021/06/12 04:47:22;;;;;;;5.35;1.90;;;;;;;11.64;84.48;101883.22;5982257;23;20023;-84
2021/06/12 04:49:47;;;;;;;3.55;1.80;;;;;;;11.65;84.65;101889.44;5958078;23;20003;-83
2021/06/12 04:52:13;;;;;;;2.75;1.85;;;;;;;11.63;84.55;101883.34;5958531;23;20035;-83
2021/06/12 04:54:38;;;;;;;2.78;1.50;;;;;;;11.66;84.27;101883.88;5981303;23;20066;-83
2021/06/12 04:57:05;;;;;;;3.60;1.50;;;;;;;11.60;84.42;101875.59;5957808;23;20013;-82
2021/06/12 04:59:30;;;;;;;3.90;1.58;;;;;;;11.66;84.32;101888.44;5957077;23;20014;-83
2021/06/12 05:01:56;;;;;;;3.97;1.75;;;;;;;11.60;84.38;101883.66;5981896;23;20083;-83
2021/06/12 05:04:21;;;;;;;3.30;1.88;;;;;;;11.35;84.36;101851.13;5983025;23;20007;-84
2021/06/12 05:06:46;;;;;;;3.90;1.60;;;;;;;11.67;84.60;101898.22;5960829;23;20048;-85
2021/06/12 05:09:12;;;;;;;3.30;1.27;;;;;;;11.66;84.29;101902.75;5957969;23;20406;-84
2021/06/12 05:11:37;;;;;;;3.63;1.45;;;;;;;11.70;84.50;101903.28;5981884;23;20124;-82
2021/06/12 05:14:03;;;;;;;3.97;1.98;;;;;;;11.77;84.80;101903.50;5982493;23;20011;-81
2021/06/12 05:16:28;;;;;;;2.33;1.48;;;;;;;11.81;84.47;101904.91;5956523;23;20012;-83
2021/06/12 05:18:54;;;;;;;3.38;1.75;;;;;;;11.79;84.23;101904.19;5956676;23;20086;-84
2021/06/12 05:21:19;;;;;;;3.10;1.38;;;;;;;11.81;84.28;101903.03;5982763;23;20010;-84
2021/06/12 05:23:44;;;;;;;3.90;1.65;;;;;;;11.77;84.09;101896.25;5957712;23;20124;-84
2021/06/12 05:26:11;;;;;;;3.88;1.67;;;;;;;11.78;84.46;101906.06;5958019;23;20390;-84
2021/06/12 05:28:37;;;;;;;3.08;1.48;;;;;;;11.83;84.44;101914.53;5957919;23;20022;-84
2021/06/12 05:31:02;;;;;;;5.57;1.88;;;;;;;11.82;84.14;101904.72;5981248;23;20012;-84
2021/06/12 05:33:29;;;;;;;5.38;1.88;;;;;;;11.84;84.17;101907.28;5981917;23;20031;-84
2021/06/12 05:35:58;;;;;;;3.53;1.50;;;;;;;11.87;83.95;101904.31;5959448;23;20090;-82
2021/06/12 05:38:25;;;;;;;1.95;1.20;;;;;;;11.94;83.96;101916.16;5957681;23;20010;-85
2021/06/12 05:40:51;;;;;;;6.82;1.75;;;;;;;11.97;83.78;101917.69;5980894;23;20007;-84
2021/06/12 05:43:16;;;;;;;3.40;1.67;;;;;;;12.00;83.87;101920.91;5957922;23;20012;-84
2021/06/12 05:45:43;;;;;;;4.10;1.60;;;;;;;12.01;83.67;101929.84;5955973;23;20008;-84
2021/06/12 05:48:09;;;;;;;4.07;1.75;;;;;;;12.09;83.63;101930.78;5955760;23;20007;-83
2021/06/12 05:50:34;;;;;;;4.43;1.70;;;;;;;12.07;83.21;101908.50;5978786;23;20015;-84
2021/06/12 05:52:59;;;;;;;4.25;1.80;;;;;;;12.32;83.24;101922.16;5978687;23;20091;-84
2021/06/12 05:55:25;;;;;;;2.50;1.33;;;;;;;12.32;82.77;101914.06;5955518;23;20702;-84
2021/06/12 05:57:50;;;;;;;4.70;1.30;;;;;;;12.29;82.37;101917.91;6003214;23;20008;-85
2021/06/12 06:00:16;;;;;;;3.67;1.60;;;;;;;12.39;82.34;101934.00;5956527;23;20008;-83
2021/06/12 06:02:42;;;;;;;4.43;1.60;;;;;;;12.30;81.99;101925.03;5978777;23;20047;-83
2021/06/12 06:05:08;;;;;;;3.10;1.38;;;;;;;12.32;82.02;101923.00;5978871;23;20059;-83
2021/06/12 06:07:33;;;;;;;4.03;1.50;;;;;;;12.45;81.85;101937.91;5955234;23;20007;-85
2021/06/12 06:09:59;;;;;;;2.78;1.55;;;;;;;12.48;81.88;101934.88;5980350;23;20014;-83
2021/06/12 06:12:25;;;;;;;2.60;1.30;;;;;;;12.52;81.49;101930.88;5978877;23;20079;-84
2021/06/12 06:14:50;;;;;;;3.60;1.50;;;;;;;12.52;81.46;101925.47;5956854;23;20444;-84
2021/06/12 06:17:15;;;;;;;3.05;1.65;;;;;;;12.65;81.22;101942.09;5980915;23;20014;-83
2021/06/12 06:19:41;;;;;;;3.30;1.55;;;;;;;12.64;81.13;101932.28;5977952;23;20008;-83
2021/06/12 06:22:06;;;;;;;3.78;1.55;;;;;;;12.79;80.38;101943.31;5954785;23;20020;-84
2021/06/12 06:24:32;;;;;;;3.33;1.50;;;;;;;12.77;80.09;101935.38;5956615;23;20067;-86
2021/06/12 06:26:57;;;;;;;2.55;1.58;;;;;;;12.88;79.73;101946.91;5957137;23;20023;-84
2021/06/12 06:29:23;;;;;;;3.63;1.63;;;;;;;12.94;79.25;101940.88;5977677;23;20010;-83
2021/06/12 06:31:48;;;;;;;3.17;1.52;;;;;;;12.92;78.97;101941.03;5956105;23;20008;-84
2021/06/12 06:34:14;;;;;;;5.00;1.50;;;;;;;12.85;78.55;101934.56;5955409;23;20062;-82
2021/06/12 06:36:39;;;;;;;5.20;1.58;;;;;;;12.91;78.63;101947.44;5979687;23;20421;-83
2021/06/12 06:39:05;;;;;;;3.17;1.85;;;;;;;12.94;78.76;101954.38;5978998;23;20007;-82
2021/06/12 06:41:31;;;;;;;3.28;1.25;;;;;;;12.91;78.67;101944.75;5958331;23;20494;-82
2021/06/12 06:43:57;;;;;;;2.05;1.33;;;;;;;12.96;78.11;101952.31;5958800;23;20015;-82
2021/06/12 06:46:22;;;;;;;3.15;1.50;;;;;;;13.03;77.78;101956.09;5981145;23;20003;-82
2021/06/12 06:48:48;;;;;;;3.58;1.20;;;;;;;13.03;78.11;101952.53;5980908;23;20008;-84
2021/06/12 06:51:14;;;;;;;2.90;1.45;;;;;;;12.89;77.62;101930.56;5958788;23;20015;-84
2021/06/12 06:53:40;;;;;;;3.25;1.40;;;;;;;13.13;77.45;101962.19;5980905;23;20000;-86
2021/06/12 06:56:06;;;;;;;3.55;1.25;;;;;;;13.14;77.18;101965.75;5958657;23;20014;-82
2021/06/12 06:58:32;;;;;;;2.88;1.15;;;;;;;13.19;77.22;101969.63;5982044;23;20004;-84
2021/06/12 07:00:58;;;;;;;2.55;1.52;;;;;;;13.16;77.17;101963.72;5960407;23;20090;-84
2021/06/12 07:03:23;;;;;;;3.15;1.55;;;;;;;13.13;76.82;101954.09;5986266;23;20063;-84
2021/06/12 07:05:49;;;;;;;3.88;1.40;;;;;;;13.39;76.85;101975.66;5985200;23;20019;-84
2021/06/12 07:08:15;;;;;;;3.20;1.77;;;;;;;13.56;76.87;101987.34;5984190;23;20004;-85
2021/06/12 07:10:40;;;;;;;3.97;1.67;;;;;;;13.55;75.80;101980.25;5966582;23;20008;-84
2021/06/12 07:13:06;;;;;;;2.55;1.30;;;;;;;13.54;76.12;101981.25;5962330;23;20037;-84
2021/06/12 07:15:32;;;;;;;2.75;1.40;;;;;;;13.54;76.42;101980.41;5982286;23;20078;-85
2021/06/12 07:17:58;;;;;;;2.72;1.45;;;;;;;13.51;76.18;101981.59;5983582;23;20015;-85
2021/06/12 07:20:23;;;;;;;4.13;1.48;;;;;;;13.53;76.43;101973.31;5961344;23;20014;-84
2021/06/12 07:22:49;;;;;;;2.20;1.27;;;;;;;13.54;76.44;101981.25;5982690;23;20007;-83
2021/06/12 07:25:15;;;;;;;3.05;1.40;;;;;;;13.57;76.25;101997.13;5959778;23;20007;-83
2021/06/12 07:27:40;;;;;;;2.35;1.38;;;;;;;13.52;76.50;101993.22;5983086;23;20335;-85
2021/06/12 07:30:07;;;;;;;3.67;1.67;;;;;;;13.23;76.41;101956.69;5960245;23;20015;-82
2021/06/12 07:32:32;;;;;;;2.78;1.45;;;;;;;13.27;76.29;101968.84;5983341;23;20027;-84
2021/06/12 07:34:57;;;;;;;4.38;1.23;;;;;;;13.41;76.46;101983.59;5983589;23;20665;-84
2021/06/12 07:37:23;;;;;;;5.43;1.50;;;;;;;13.54;76.71;101983.94;5982180;23;20014;-82
2021/06/12 07:39:49;;;;;;;3.38;1.85;;;;;;;13.63;76.42;101972.16;5982448;23;20187;-83
2021/06/12 07:42:14;;;;;;;3.72;1.77;;;;;;;13.71;75.66;101962.38;5960278;23;20083;-84
2021/06/12 07:44:40;;;;;;;3.75;1.88;;;;;;;13.75;75.84;101969.97;5961016;23;20007;-84
2021/06/12 07:47:05;;;;;;;3.95;1.65;;;;;;;13.87;75.22;101980.47;5960792;23;20000;-78
2021/06/12 07:49:31;;;;;;;5.78;2.00;;;;;;;13.95;75.44;101973.22;5978653;23;20004;-77
2021/06/12 07:51:56;;;;;;;2.60;1.55;;;;;;;14.02;74.80;101973.38;5978427;23;20004;-77
2021/06/12 07:54:22;;;;;;;3.72;1.50;;;;;;;14.02;74.29;101976.91;6002177;23;20139;-77
2021/06/12 07:56:47;;;;;;;4.65;2.17;;;;;;;14.05;74.60;101983.84;5979871;23;20052;-77
2021/06/12 07:59:13;;;;;;;4.07;1.80;;;;;;;14.04;74.01;101988.41;5956901;23;20014;-77
2021/06/12 08:01:39;;;;;;;3.42;1.98;;;;;;;14.03;74.23;101981.31;6004080;23;20099;-78
2021/06/12 08:04:04;;;;;;;3.60;1.92;;;;;;;14.06;74.28;101997.22;5981669;23;20003;-78
2021/06/12 08:06:30;;;;;;;7.25;2.17;;;;;;;14.05;74.45;101992.81;6005667;23;20064;-79
2021/06/12 08:08:56;;;;;;;5.07;2.05;;;;;;;14.06;74.31;102002.63;5978271;23;20008;-78
2021/06/12 08:11:22;;;;;;;7.00;2.50;;;;;;;14.06;74.30;102002.63;6005560;23;20018;-78
2021/06/12 08:13:47;;;;;;;6.18;2.20;;;;;;;14.05;74.44;102000.94;5982138;23;20004;-78
2021/06/12 08:16:13;;;;;;;4.47;1.60;;;;;;;14.14;74.14;102003.63;5982425;23;20007;-84
2021/06/12 08:18:38;;;;;;;2.63;1.70;;;;;;;14.13;74.05;101989.28;5983479;23;20003;-84
2021/06/12 08:21:04;;;;;;;4.43;1.70;;;;;;;14.33;73.90;102000.59;5959608;23;20011;-84
2021/06/12 08:23:30;;;;;;;3.45;1.75;;;;;;;14.44;73.75;102000.22;5960845;23;20059;-85
2021/06/12 08:25:55;;;;;;;4.38;1.83;;;;;;;14.45;73.46;101996.53;5960150;23;20012;-84
2021/06/12 08:28:22;;;;;;;4.05;2.03;;;;;;;14.57;72.99;102007.84;5960861;23;20016;-85
2021/06/12 08:30:48;;;;;;;6.00;2.15;;;;;;;14.69;73.04;102009.19;5981584;23;20444;-83
2021/06/12 08:33:13;;;;;;;3.63;1.80;;;;;;;14.88;72.25;102001.72;5958198;23;20003;-85
2021/06/12 08:35:39;;;;;;;2.22;1.40;;;;;;;14.94;71.64;102001.00;5957771;23;20014;-82
2021/06/12 08:38:06;;;;;;;4.82;2.33;;;;;;;15.03;70.88;101993.69;5957246;23;20019;-83
2021/06/12 08:40:32;;;;;;;3.03;1.70;;;;;;;15.13;70.72;101999.75;5958087;23;20094;-84
2021/06/12 08:42:58;;;;;;;6.65;1.80;;;;;;;15.26;71.51;101996.47;5981724;23;20911;-83
2021/06/12 08:45:29;;;;;;;3.35;1.50;;;;;;;15.44;70.41;102001.66;5959422;23;20355;-84
2021/06/12 08:47:59;;;;;;;4.00;2.00;;;;;;;15.55;69.68;102006.66;5982046;23;20494;-83
2021/06/12 08:50:25;;;;;;;4.20;1.60;;;;;;;15.49;69.64;101994.66;5957523;23;20068;-83
2021/06/12 08:52:53;;;;;;;6.45;2.00;;;;;;;15.50;68.91;102001.75;5981040;23;20079;-84
2021/06/12 08:55:19;;;;;;;3.00;1.50;;;;;;;15.58;68.02;102011.72;5958447;23;20506;-84
2021/06/12 08:57:44;;;;;;;2.55;1.50;;;;;;;15.58;67.84;101998.16;5957331;23;20008;-84
2021/06/12 09:00:11;;;;;;;5.28;1.60;;;;;;;15.60;68.50;102006.97;5957687;23;20053;-83
2021/06/12 09:03:12;;;;;;;6.28;1.73;;;;;;;15.79;68.58;102022.81;5957939;23;20004;-83
2021/06/12 09:05:50;;;;;;;3.45;1.38;;;;;;;15.87;68.16;102018.34;5980961;23;20623;-83
2021/06/12 09:08:21;;;;;;;3.33;1.70;;;;;;;16.11;67.23;102025.47;5980696;23;20016;-84
2021/06/12 09:10:53;;;;;;;4.78;1.40;;;;;;;16.04;67.21;102026.22;5981145;23;20042;-84
2021/06/12 09:13:37;;;;;;;6.13;1.40;;;;;;;16.10;67.50;102021.91;5958265;23;20123;-83
2021/06/12 09:16:04;;;;;;;2.53;1.27;;;;;;;16.18;66.54;102021.84;5981080;23;20034;-83
2021/06/12 09:18:41;;;;;;;3.00;1.30;;;;;;;16.19;66.46;102030.81;5980744;23;20004;-83
2021/06/12 09:21:22;;;;;;;3.47;1.58;;;;;;;16.23;66.22;102035.72;5957594;23;20067;-83
2021/06/12 09:23:47;;;;;;;3.88;1.60;;;;;;;16.32;66.50;102032.94;5981328;23;20378;-83
2021/06/12 09:26:13;;;;;;;2.65;1.23;;;;;;;16.34;65.87;102028.19;5957396;23;20086;-83
2021/06/12 09:29:05;;;;;;;5.40;1.90;;;;;;;16.37;66.36;102030.53;5957464;23;20342;-83
2021/06/12 09:31:30;;;;;;;3.45;1.38;;;;;;;16.21;66.24;102005.19;5976801;23;20076;-84
2021/06/12 09:33:56;;;;;;;3.80;1.45;;;;;;;16.38;65.92;102021.34;5957389;23;20007;-83
2021/06/12 09:36:35;;;;;;;2.45;1.20;;;;;;;16.54;65.07;102036.63;5981248;23;20019;-84
2021/06/12 09:39:22;;;;;;;2.60;1.27;;;;;;;16.75;64.41;102023.22;5980124;23;20010;-85
2021/06/12 09:41:49;;;;;;;6.30;1.20;;;;;;;17.07;63.87;102043.78;5958146;23;20755;-83
2021/06/12 09:44:31;;;;;;;1.65;1.08;;;;;;;17.04;63.25;102038.72;5980450;23;20011;-83
2021/06/12 09:46:58;;;;;;;4.13;1.45;;;;;;;17.07;62.86;102049.22;5980305;23;20028;-83
2021/06/12 09:49:37;;;;;;;2.58;1.55;;;;;;;17.19;62.43;102051.44;5957135;23;20008;-83
2021/06/12 09:52:10;;;;;;;2.75;1.10;;;;;;;17.31;62.10;102052.66;5981020;23;20015;-84
2021/06/12 09:54:44;;;;;;;4.45;1.50;;;;;;;17.45;62.22;102048.25;5980856;23;20004;-85
2021/06/12 09:57:12;;;;;;;3.50;1.23;;;;;;;17.56;62.34;102054.00;5957696;23;20016;-84
2021/06/12 09:59:46;;;;;;;3.30;1.33;;;;;;;17.63;61.98;102050.56;5956742;23;20068;-82
2021/06/12 10:02:14;;;;;;;2.85;1.25;;;;;;;17.68;61.47;102051.66;5980827;23;20083;-83
2021/06/12 10:04:58;;;;;;;4.93;1.40;;;;;;;17.65;60.93;102040.31;5957250;23;20007;-83
2021/06/12 10:07:24;;;;;;;2.75;1.02;;;;;;;17.68;61.08;102058.97;5957321;23;20016;-78
2021/06/12 10:09:51;;;;;;;2.65;1.02;;;;;;;17.88;61.58;102053.78;5978808;23;20027;-78
2021/06/12 10:12:18;;;;;;;5.10;1.45;;;;;;;18.02;60.87;102058.34;5979437;23;20007;-78
2021/06/12 10:14:45;;;;;;;5.47;1.88;;;;;;;18.14;60.34;102056.78;6003226;23;20011;-78
2021/06/12 10:17:13;;;;;;;2.67;1.27;;;;;;;18.28;58.74;102057.75;5980704;23;20004;-77
2021/06/12 10:19:40;;;;;;;3.75;1.50;;;;;;;18.30;58.53;102060.28;5981276;23;20008;-77
2021/06/12 10:22:06;;;;;;;4.25;1.70;;;;;;;18.36;58.32;102065.78;5981743;23;20067;-77
2021/06/12 10:24:32;;;;;;;5.95;1.55;;;;;;;18.51;58.10;102067.59;5982223;23;20008;-77
2021/06/12 10:26:58;;;;;;;5.03;1.20;;;;;;;18.65;58.08;102069.38;5980256;23;20014;-77
2021/06/12 10:29:23;;;;;;;4.72;1.38;;;;;;;18.46;57.44;102054.56;5957498;23;20112;-78
2021/06/12 10:31:49;;;;;;;3.47;1.30;;;;;;;18.28;58.38;102057.75;6006838;23;20014;-78
2021/06/12 10:34:15;;;;;;;6.85;1.38;;;;;;;18.37;58.75;102072.09;5981228;23;20011;-77
2021/06/12 10:36:57;;;;;;;3.28;1.40;;;;;;;18.51;58.33;102073.88;5982015;23;20034;-78
2021/06/12 10:39:28;;;;;;;5.40;1.48;;;;;;;18.41;57.96;102068.75;5980460;23;20012;-78
2021/06/12 10:42:12;;;;;;;3.83;1.75;;;;;;;18.43;58.44;102076.75;6004356;23;20027;-78
2021/06/12 10:44:39;;;;;;;4.07;1.17;;;;;;;18.54;57.78;102070.75;6005315;23;20671;-78
2021/06/12 10:47:05;;;;;;;3.30;1.20;;;;;;;18.62;57.79;102081.50;5981103;23;20007;-78
2021/06/12 10:49:33;;;;;;;4.57;1.23;;;;;;;18.58;58.13;102074.78;6003547;23;20088;-78
2021/06/12 10:51:59;;;;;;;3.97;1.13;;;;;;;18.64;56.90;102075.88;5981290;23;20442;-78
2021/06/12 10:54:30;;;;;;;5.90;1.30;;;;;;;18.62;57.37;102076.06;5979915;23;20106;-78
2021/06/12 10:57:11;;;;;;;4.95;1.38;;;;;;;18.69;57.24;102067.97;5956758;23;20357;-78
2021/06/12 10:59:37;;;;;;;7.82;1.30;;;;;;;18.85;57.92;102069.56;6004287;23;20019;-78
2021/06/12 11:04:56;;;;;;;3.55;1.13;;;;;;;18.95;57.08;102070.06;5981284;23;20007;-78
2021/06/12 11:07:27;;;;;;;2.47;1.23;;;;;;;18.73;57.41;102065.66;5980893;23;20031;-78
2021/06/12 11:10:13;;;;;;;3.97;1.42;;;;;;;18.77;58.09;102067.84;5979292;23;20015;-78
2021/06/12 11:12:42;;;;;;;5.05;1.50;;;;;;;18.88;58.51;102074.63;5998096;23;20019;-78
2021/06/12 11:15:12;;;;;;;4.30;1.20;;;;;;;19.08;58.22;102074.78;5979768;23;20007;-78
2021/06/12 11:17:42;;;;;;;4.75;1.40;;;;;;;19.21;57.14;102074.84;5979818;23;20008;-78
2021/06/12 11:20:10;;;;;;;3.08;1.40;;;;;;;19.21;57.32;102073.97;5979570;23;20008;-78
2021/06/12 11:22:41;;;;;;;3.70;1.40;;;;;;;19.30;57.92;102070.91;6005137;23;20038;-78
2021/06/12 11:25:09;;;;;;;4.82;1.40;;;;;;;19.32;57.59;102077.00;5979543;23;20030;-76
2021/06/12 11:27:42;;;;;;;6.63;1.50;;;;;;;19.26;58.21;102074.22;6004280;23;20018;-77
2021/06/12 11:30:20;;;;;;;4.40;1.60;;;;;;;19.18;57.77;102071.66;6010119;23;20008;-75